Terminal Aerodrome Forecast
Issued by NWS

Home | Current Version | Previous Version | Text Only | Print | Product List | Glossary On
Versions: 1 2 3 4 5 6 7 8 9 10 11 12 13 14 15
000
FTAK31 PAFA 161722
TAFAOT
TAF
PAOT 161722Z 1618/1718 12017KT P6SM SCT025 OVC070
     FM170200 08010KT P6SM BKN050 BKN100
     FM170700 33006KT P6SM SCT050 BKN100
     FM171400 28007KT P6SM SCT050 BKN100=

USA.gov is the U.S. government's official web portal to all federal, state and local government web resources and services.